Terminal Aerodrome Forecast
Issued by NWS

Home | Current Version | Previous Version | Text Only | Print | Product List | Glossary On
Versions: 1 2 3 4 5 6 7 8 9 10 11 12 13 14 15 16 17 18 19 20 21 22 23 24 25 26 27 28 29 30 31 32 33 34
000
FTUS41 KBOX 211501 AAB
TAFBAF
TAF AMD
KBAF 211501Z 2115/2212 00000KT 1SM BR BKN002
     FM211600 17003KT 3SM BR BKN008
     FM211730 18005KT 6SM BR BKN015
     FM211900 17006KT P6SM BKN035
     FM212300 18004KT P6SM BKN020
     FM220300 23004KT P6SM BKN250
     FM220600 27004KT 5SM BR BKN045
     FM220700 27004KT 6SM BR BKN250=

USA.gov is the U.S. government's official web portal to all federal, state and local government web resources and services.